Pagrindinis puslapis
METAR-TAF:

METAR-TAF

Oro uostai :

Trevizas, Italija

platuma: 45-39N, ilguma: 012-11E, Aukštis: 18 m

Dabartinis oras

Ataskaita buvo paskelbta 18 minutes, ne 11:20 UTC
Vėjas 5 kt iš Rytų
Temperatūra 21°C
Drėgmė 33%
Slėgis 1024 hPa
Matomumas 10 km arba daugiau
nėra debesų žemiau 1500 m ir nėra kamuolinių lietaus debesų

METAR: LIPH 211120Z 10005KT CAVOK 21/04 Q1024

Laikas: 13:38 (11:38 UTC)

Prognozė

Ataskaita buvo paskelbta 6 valandos ir 38 minutes, ne 05:00 UTC
Prognozė galioja nuo 21 metu 06 UTC su 22 metu 06 UTC
Vėjas 5 kt nuo kintamojo kryptimis
Matomumas 10 km arba daugiau
Mažai debesys ne aukštis 5000 ft

TAF: LIPH 210500Z 2106/2206 VRB05KT 9999 FEW050

Orai ataskaitas ir orų prognozės (METAR, TAF).

turimą stotys yra geltonos ir raudonos taškus žemėlapyje.

Perkelti pele per norėdami pamatyti stoties vardą.

Tada spustelėkite, norėdami matyti oro stebėjimo ir prognozės.

Norėdami pakeisti žemėlapį: spustelėkite ant žalios mygtukų su juodo kryžiaus žemyn,; žalią mygtuką su brūkšneliu, jei norite nutolinti; arba žalių rodyklių gretimoms žemėlapius.


METAR-TAF: